sensor_id;sensor_type;location;lat;lon;timestamp;pressure;altitude;pressure_sealevel;temperature;humidity
73063;BME280;61230;46.328;19.972;2024-01-06T00:01:43;99674.31;;;7.20;100.00
73063;BME280;61230;46.328;19.972;2024-01-06T00:04:11;99661.34;;;7.19;100.00
73063;BME280;61230;46.328;19.972;2024-01-06T00:06:39;99624.34;;;6.94;100.00
73063;BME280;61230;46.328;19.972;2024-01-06T00:09:07;99656.00;;;7.20;100.00
73063;BME280;61230;46.328;19.972;2024-01-06T00:11:35;99618.13;;;6.95;100.00
73063;BME280;61230;46.328;19.972;2024-01-06T00:14:02;99618.28;;;6.94;100.00
73063;BME280;61230;46.328;19.972;2024-01-06T00:16:30;99616.34;;;6.96;100.00
73063;BME280;61230;46.328;19.972;2024-01-06T00:18:58;99652.56;;;7.20;100.00
73063;BME280;61230;46.328;19.972;2024-01-06T00:21:27;99662.19;;;7.19;100.00
73063;BME280;61230;46.328;19.972;2024-01-06T00:23:54;99653.50;;;7.19;100.00
73063;BME280;61230;46.328;19.972;2024-01-06T00:26:23;99649.25;;;7.18;100.00
73063;BME280;61230;46.328;19.972;2024-01-06T00:28:54;99640.56;;;7.17;100.00
73063;BME280;61230;46.328;19.972;2024-01-06T00:31:22;99646.75;;;7.16;100.00
73063;BME280;61230;46.328;19.972;2024-01-06T00:33:50;99646.75;;;7.16;100.00
73063;BME280;61230;46.328;19.972;2024-01-06T00:36:18;99603.13;;;6.88;100.00
73063;BME280;61230;46.328;19.972;2024-01-06T00:38:45;99643.19;;;7.17;100.00
73063;BME280;61230;46.328;19.972;2024-01-06T00:41:13;99638.91;;;7.16;100.00
73063;BME280;61230;46.328;19.972;2024-01-06T00:43:42;99643.19;;;7.17;100.00
73063;BME280;61230;46.328;19.972;2024-01-06T00:46:09;99594.06;;;6.92;100.00
73063;BME280;61230;46.328;19.972;2024-01-06T00:48:37;99634.25;;;7.20;100.00
73063;BME280;61230;46.328;19.972;2024-01-06T00:51:05;99637.53;;;7.22;100.00
73063;BME280;61230;46.328;19.972;2024-01-06T00:53:33;99641.66;;;7.24;100.00
73063;BME280;61230;46.328;19.972;2024-01-06T00:56:01;99637.13;;;7.26;100.00
73063;BME280;61230;46.328;19.972;2024-01-06T00:58:29;99643.87;;;7.29;100.00
73063;BME280;61230;46.328;19.972;2024-01-06T01:00:56;99644.41;;;7.32;100.00
73063;BME280;61230;46.328;19.972;2024-01-06T01:03:24;99647.03;;;7.32;100.00
73063;BME280;61230;46.328;19.972;2024-01-06T01:05:52;99649.38;;;7.35;100.00
73063;BME280;61230;46.328;19.972;2024-01-06T01:08:20;99650.06;;;7.37;100.00
73063;BME280;61230;46.328;19.972;2024-01-06T01:10:49;99650.06;;;7.37;100.00
73063;BME280;61230;46.328;19.972;2024-01-06T01:13:16;99600.78;;;7.14;100.00
73063;BME280;61230;46.328;19.972;2024-01-06T01:15:44;99647.97;;;7.41;100.00
73063;BME280;61230;46.328;19.972;2024-01-06T01:18:13;99647.19;;;7.40;100.00
73063;BME280;61230;46.328;19.972;2024-01-06T01:20:41;99656.53;;;7.43;100.00
73063;BME280;61230;46.328;19.972;2024-01-06T01:23:09;99655.72;;;7.42;100.00
73063;BME280;61230;46.328;19.972;2024-01-06T01:25:37;99642.63;;;7.42;100.00
73063;BME280;61230;46.328;19.972;2024-01-06T01:28:06;99640.84;;;7.43;100.00
73063;BME280;61230;46.328;19.972;2024-01-06T01:30:34;99637.38;;;7.42;100.00
73063;BME280;61230;46.328;19.972;2024-01-06T01:33:02;99637.38;;;7.42;100.00
73063;BME280;61230;46.328;19.972;2024-01-06T01:35:30;99640.84;;;7.43;100.00
73063;BME280;61230;46.328;19.972;2024-01-06T01:37:58;99640.13;;;7.41;100.00
73063;BME280;61230;46.328;19.972;2024-01-06T01:40:26;99636.56;;;7.42;100.00
73063;BME280;61230;46.328;19.972;2024-01-06T01:42:54;99637.38;;;7.42;100.00
73063;BME280;61230;46.328;19.972;2024-01-06T01:45:22;99643.47;;;7.43;100.00
73063;BME280;61230;46.328;19.972;2024-01-06T01:47:50;99644.41;;;7.42;100.00
73063;BME280;61230;46.328;19.972;2024-01-06T01:50:19;99638.22;;;7.43;100.00
73063;BME280;61230;46.328;19.972;2024-01-06T01:52:48;99629.38;;;7.44;100.00
73063;BME280;61230;46.328;19.972;2024-01-06T01:55:16;99630.09;;;7.46;100.00
73063;BME280;61230;46.328;19.972;2024-01-06T01:57:44;99627.31;;;7.47;100.00
73063;BME280;61230;46.328;19.972;2024-01-06T02:00:12;99638.19;;;7.52;100.00
73063;BME280;61230;46.328;19.972;2024-01-06T02:02:40;99628.41;;;7.55;100.00
73063;BME280;61230;46.328;19.972;2024-01-06T02:05:08;99637.78;;;7.57;100.00
73063;BME280;61230;46.328;19.972;2024-01-06T02:07:36;99631.56;;;7.58;100.00
73063;BME280;61230;46.328;19.972;2024-01-06T02:10:04;99635.00;;;7.59;100.00
73063;BME280;61230;46.328;19.972;2024-01-06T02:12:32;99639.41;;;7.58;100.00
73063;BME280;61230;46.328;19.972;2024-01-06T02:15:00;99642.59;;;7.62;100.00
73063;BME280;61230;46.328;19.972;2024-01-06T02:17:27;99598.13;;;7.33;100.00
73063;BME280;61230;46.328;19.972;2024-01-06T02:19:55;99634.87;;;7.60;100.00
73063;BME280;61230;46.328;19.972;2024-01-06T02:22:24;99639.12;;;7.61;100.00
73063;BME280;61230;46.328;19.972;2024-01-06T02:24:52;99640.13;;;7.60;100.00
73063;BME280;61230;46.328;19.972;2024-01-06T02:27:20;99627.84;;;7.61;100.00
73063;BME280;61230;46.328;19.972;2024-01-06T02:29:48;99589.34;;;7.34;100.00
73063;BME280;61230;46.328;19.972;2024-01-06T02:32:16;99628.94;;;7.58;100.00
73063;BME280;61230;46.328;19.972;2024-01-06T02:34:44;99628.16;;;7.58;100.00
73063;BME280;61230;46.328;19.972;2024-01-06T02:37:12;99628.16;;;7.58;100.00
73063;BME280;61230;46.328;19.972;2024-01-06T02:39:40;99589.47;;;7.32;100.00
73063;BME280;61230;46.328;19.972;2024-01-06T02:42:08;99638.91;;;7.55;100.00
73063;BME280;61230;46.328;19.972;2024-01-06T02:44:36;99637.22;;;7.53;100.00
73063;BME280;61230;46.328;19.972;2024-01-06T02:47:04;99596.78;;;7.29;100.00
73063;BME280;61230;46.328;19.972;2024-01-06T02:49:32;99637.34;;;7.52;100.00
73063;BME280;61230;46.328;19.972;2024-01-06T02:52:01;99584.94;;;7.25;100.00
73063;BME280;61230;46.328;19.972;2024-01-06T02:54:28;99626.22;;;7.50;100.00
73063;BME280;61230;46.328;19.972;2024-01-06T02:56:56;99627.19;;;7.49;100.00
73063;BME280;61230;46.328;19.972;2024-01-06T02:59:24;99581.63;;;7.23;100.00
73063;BME280;61230;46.328;19.972;2024-01-06T03:01:52;99630.63;;;7.49;100.00
73063;BME280;61230;46.328;19.972;2024-01-06T03:04:20;99621.97;;;7.49;100.00
73063;BME280;61230;46.328;19.972;2024-01-06T03:06:48;99582.47;;;7.23;100.00
73063;BME280;61230;46.328;19.972;2024-01-06T03:09:20;99630.63;;;7.49;100.00
73063;BME280;61230;46.328;19.972;2024-01-06T03:11:47;99625.53;;;7.48;100.00
73063;BME280;61230;46.328;19.972;2024-01-06T03:14:15;99605.28;;;7.50;100.00
73063;BME280;61230;46.328;19.972;2024-01-06T03:16:43;99550.94;;;7.15;100.00
73063;BME280;61230;46.328;19.972;2024-01-06T03:19:11;99585.88;;;7.43;100.00
73063;BME280;61230;46.328;19.972;2024-01-06T03:21:38;99577.75;;;7.36;100.00
73063;BME280;61230;46.328;19.972;2024-01-06T03:24:07;99579.13;;;7.40;100.00
73063;BME280;61230;46.328;19.972;2024-01-06T03:26:36;99582.00;;;7.47;100.00
73063;BME280;61230;46.328;19.972;2024-01-06T03:29:04;99540.34;;;7.26;100.00
73063;BME280;61230;46.328;19.972;2024-01-06T03:31:32;99583.38;;;7.51;100.00
73063;BME280;61230;46.328;19.972;2024-01-06T03:34:00;99588.44;;;7.52;100.00
73063;BME280;61230;46.328;19.972;2024-01-06T03:36:28;99588.31;;;7.54;100.00
73063;BME280;61230;46.328;19.972;2024-01-06T03:38:56;99585.72;;;7.54;100.00
73063;BME280;61230;46.328;19.972;2024-01-06T03:41:24;99582.25;;;7.53;100.00
73063;BME280;61230;46.328;19.972;2024-01-06T03:43:52;99572.63;;;7.54;100.00
73063;BME280;61230;46.328;19.972;2024-01-06T03:46:19;99529.56;;;7.29;100.00
73063;BME280;61230;46.328;19.972;2024-01-06T03:48:47;99532.47;;;7.26;100.00
73063;BME280;61230;46.328;19.972;2024-01-06T03:51:15;99577.97;;;7.52;100.00
73063;BME280;61230;46.328;19.972;2024-01-06T03:53:43;99573.19;;;7.48;100.00
73063;BME280;61230;46.328;19.972;2024-01-06T03:56:13;99563.44;;;7.40;100.00
73063;BME280;61230;46.328;19.972;2024-01-06T03:58:40;99551.59;;;7.36;100.00
73063;BME280;61230;46.328;19.972;2024-01-06T04:01:08;99551.59;;;7.36;100.00
73063;BME280;61230;46.328;19.972;2024-01-06T04:03:36;99536.44;;;7.30;100.00
73063;BME280;61230;46.328;19.972;2024-01-06T04:06:04;99530.16;;;7.23;100.00
73063;BME280;61230;46.328;19.972;2024-01-06T04:08:31;99531.53;;;7.18;100.00
73063;BME280;61230;46.328;19.972;2024-01-06T04:10:59;99523.53;;;7.19;100.00
73063;BME280;61230;46.328;19.972;2024-01-06T04:13:27;99481.06;;;6.98;100.00
73063;BME280;61230;46.328;19.972;2024-01-06T04:15:55;99514.31;;;7.15;100.00
73063;BME280;61230;46.328;19.972;2024-01-06T04:18:23;99519.13;;;7.20;100.00
73063;BME280;61230;46.328;19.972;2024-01-06T04:20:51;99527.09;;;7.18;100.00
73063;BME280;61230;46.328;19.972;2024-01-06T04:23:19;99531.53;;;7.18;100.00
73063;BME280;61230;46.328;19.972;2024-01-06T04:25:49;99518.03;;;7.22;100.00
73063;BME280;61230;46.328;19.972;2024-01-06T04:28:17;99520.19;;;7.27;100.00
73063;BME280;61230;46.328;19.972;2024-01-06T04:30:45;99507.25;;;7.35;100.00
73063;BME280;61230;46.328;19.972;2024-01-06T04:33:13;99506.81;;;7.39;100.00
73063;BME280;61230;46.328;19.972;2024-01-06T04:35:41;99502.97;;;7.43;100.00
73063;BME280;61230;46.328;19.972;2024-01-06T04:38:08;99505.25;;;7.46;100.00
73063;BME280;61230;46.328;19.972;2024-01-06T04:40:37;99510.91;;;7.51;100.00
73063;BME280;61230;46.328;19.972;2024-01-06T04:43:04;99499.19;;;7.56;100.00
73063;BME280;61230;46.328;19.972;2024-01-06T04:45:32;99501.75;;;7.65;100.00
73063;BME280;61230;46.328;19.972;2024-01-06T04:48:00;99502.41;;;7.77;100.00
73063;BME280;61230;46.328;19.972;2024-01-06T04:50:28;99499.59;;;7.88;100.00
73063;BME280;61230;46.328;19.972;2024-01-06T04:52:57;99491.00;;;7.95;100.00
73063;BME280;61230;46.328;19.972;2024-01-06T04:55:25;99493.41;;;8.06;100.00
73063;BME280;61230;46.328;19.972;2024-01-06T04:57:53;99487.75;;;8.11;100.00
73063;BME280;61230;46.328;19.972;2024-01-06T05:00:20;99489.22;;;8.14;100.00
73063;BME280;61230;46.328;19.972;2024-01-06T05:02:49;99478.47;;;8.17;100.00
73063;BME280;61230;46.328;19.972;2024-01-06T05:05:17;99484.81;;;8.14;100.00
73063;BME280;61230;46.328;19.972;2024-01-06T05:07:45;99481.66;;;8.10;100.00
73063;BME280;61230;46.328;19.972;2024-01-06T05:10:13;99438.97;;;7.83;100.00
73063;BME280;61230;46.328;19.972;2024-01-06T05:12:41;99482.25;;;8.04;100.00
73063;BME280;61230;46.328;19.972;2024-01-06T05:15:09;99470.28;;;8.02;100.00
73063;BME280;61230;46.328;19.972;2024-01-06T05:17:37;99464.50;;;7.98;100.00
73063;BME280;61230;46.328;19.972;2024-01-06T05:20:05;99467.28;;;7.97;100.00
73063;BME280;61230;46.328;19.972;2024-01-06T05:22:34;99464.66;;;7.97;100.00
73063;BME280;61230;46.328;19.972;2024-01-06T05:25:03;99467.28;;;7.97;100.00
73063;BME280;61230;46.328;19.972;2024-01-06T05:27:31;99471.16;;;7.93;100.00
73063;BME280;61230;46.328;19.972;2024-01-06T05:29:58;99477.06;;;7.95;100.00
73063;BME280;61230;46.328;19.972;2024-01-06T05:32:26;99473.78;;;7.93;100.00
73063;BME280;61230;46.328;19.972;2024-01-06T05:34:54;99468.81;;;7.90;100.00
73063;BME280;61230;46.328;19.972;2024-01-06T05:37:22;99428.59;;;7.64;100.00
73063;BME280;61230;46.328;19.972;2024-01-06T05:39:50;99473.22;;;7.89;100.00
73063;BME280;61230;46.328;19.972;2024-01-06T05:42:18;99472.72;;;7.86;100.00
73063;BME280;61230;46.328;19.972;2024-01-06T05:44:45;99475.34;;;7.86;100.00
73063;BME280;61230;46.328;19.972;2024-01-06T05:47:13;99470.09;;;7.86;100.00
73063;BME280;61230;46.328;19.972;2024-01-06T05:49:41;99473.69;;;7.85;100.00
73063;BME280;61230;46.328;19.972;2024-01-06T05:52:10;99478.94;;;7.85;100.00
73063;BME280;61230;46.328;19.972;2024-01-06T05:54:42;99481.84;;;7.82;100.00
73063;BME280;61230;46.328;19.972;2024-01-06T05:57:10;99469.84;;;7.79;100.00
73063;BME280;61230;46.328;19.972;2024-01-06T05:59:39;99463.66;;;7.80;100.00
73063;BME280;61230;46.328;19.972;2024-01-06T06:02:06;99471.34;;;7.82;100.00
73063;BME280;61230;46.328;19.972;2024-01-06T06:04:34;99464.34;;;7.82;100.00
73063;BME280;61230;46.328;19.972;2024-01-06T06:07:03;99465.28;;;7.81;100.00
73063;BME280;61230;46.328;19.972;2024-01-06T06:09:31;99461.56;;;7.84;100.00
73063;BME280;61230;46.328;19.972;2024-01-06T06:12:02;99464.47;;;7.81;100.00
73063;BME280;61230;46.328;19.972;2024-01-06T06:14:30;99454.59;;;7.75;100.00
73063;BME280;61230;46.328;19.972;2024-01-06T06:16:58;99457.59;;;7.80;100.00
73063;BME280;61230;46.328;19.972;2024-01-06T06:19:26;99456.91;;;7.78;100.00
73063;BME280;61230;46.328;19.972;2024-01-06T06:21:54;99457.72;;;7.78;100.00
73063;BME280;61230;46.328;19.972;2024-01-06T06:24:22;99469.03;;;7.79;100.00
73063;BME280;61230;46.328;19.972;2024-01-06T06:26:50;99423.72;;;7.51;100.00
73063;BME280;61230;46.328;19.972;2024-01-06T06:29:17;99467.53;;;7.76;100.00
73063;BME280;61230;46.328;19.972;2024-01-06T06:31:45;99436.59;;;7.62;100.00
73063;BME280;61230;46.328;19.972;2024-01-06T06:34:14;99472.94;;;7.75;100.00
73063;BME280;61230;46.328;19.972;2024-01-06T06:36:42;99469.31;;;7.76;100.00
73063;BME280;61230;46.328;19.972;2024-01-06T06:39:10;99469.31;;;7.76;100.00
73063;BME280;61230;46.328;19.972;2024-01-06T06:41:38;99464.75;;;7.78;100.00
73063;BME280;61230;46.328;19.972;2024-01-06T06:44:05;99430.56;;;7.52;100.00
73063;BME280;61230;46.328;19.972;2024-01-06T06:46:33;99470.31;;;7.75;100.00
73063;BME280;61230;46.328;19.972;2024-01-06T06:49:01;99457.22;;;7.75;100.00
73063;BME280;61230;46.328;19.972;2024-01-06T06:51:30;99460.78;;;7.74;100.00
73063;BME280;61230;46.328;19.972;2024-01-06T06:53:58;99449.25;;;7.67;100.00
73063;BME280;61230;46.328;19.972;2024-01-06T06:56:26;99456.69;;;7.71;100.00
73063;BME280;61230;46.328;19.972;2024-01-06T06:58:54;99450.63;;;7.71;100.00
73063;BME280;61230;46.328;19.972;2024-01-06T07:01:21;99455.41;;;7.75;100.00
73063;BME280;61230;46.328;19.972;2024-01-06T07:03:49;99453.31;;;7.79;100.00
73063;BME280;61230;46.328;19.972;2024-01-06T07:06:17;99450.56;;;7.80;100.00
73063;BME280;61230;46.328;19.972;2024-01-06T07:08:45;99450.56;;;7.80;100.00
73063;BME280;61230;46.328;19.972;2024-01-06T07:11:13;99442.47;;;7.74;100.00
73063;BME280;61230;46.328;19.972;2024-01-06T07:13:42;99418.72;;;7.58;100.00
73063;BME280;61230;46.328;19.972;2024-01-06T07:16:10;99445.00;;;7.83;100.00
73063;BME280;61230;46.328;19.972;2024-01-06T07:18:46;99443.91;;;7.86;100.00
73063;BME280;61230;46.328;19.972;2024-01-06T07:21:14;99455.72;;;7.90;100.00
73063;BME280;61230;46.328;19.972;2024-01-06T07:23:41;99450.50;;;7.90;100.00
73063;BME280;61230;46.328;19.972;2024-01-06T07:26:10;99410.56;;;7.61;100.00
73063;BME280;61230;46.328;19.972;2024-01-06T07:28:37;99457.22;;;7.92;100.00
73063;BME280;61230;46.328;19.972;2024-01-06T07:31:05;99460.53;;;7.94;100.00
73063;BME280;61230;46.328;19.972;2024-01-06T07:33:34;99465.50;;;7.97;100.00
73063;BME280;61230;46.328;19.972;2024-01-06T07:36:02;99437.84;;;7.85;100.00
73063;BME280;61230;46.328;19.972;2024-01-06T07:38:29;99463.25;;;8.02;100.00
73063;BME280;61230;46.328;19.972;2024-01-06T07:40:59;99456.22;;;8.03;100.00
73063;BME280;61230;46.328;19.972;2024-01-06T07:43:26;99458.38;;;8.07;100.00
73063;BME280;61230;46.328;19.972;2024-01-06T07:45:54;99457.41;;;8.08;100.00
73063;BME280;61230;46.328;19.972;2024-01-06T07:48:22;99457.63;;;8.15;100.00
73063;BME280;61230;46.328;19.972;2024-01-06T07:50:50;99452.78;;;8.20;100.00
73063;BME280;61230;46.328;19.972;2024-01-06T07:53:18;99416.22;;;8.01;100.00
73063;BME280;61230;46.328;19.972;2024-01-06T07:55:45;99455.88;;;8.33;100.00
73063;BME280;61230;46.328;19.972;2024-01-06T07:58:13;99453.63;;;8.38;100.00
73063;BME280;61230;46.328;19.972;2024-01-06T08:00:41;99453.03;;;8.44;100.00
73063;BME280;61230;46.328;19.972;2024-01-06T08:03:08;99456.69;;;8.51;100.00
73063;BME280;61230;46.328;19.972;2024-01-06T08:05:36;99464.78;;;8.58;100.00
73063;BME280;61230;46.328;19.972;2024-01-06T08:08:05;99459.87;;;8.63;100.00
73063;BME280;61230;46.328;19.972;2024-01-06T08:10:33;99458.47;;;8.68;100.00
73063;BME280;61230;46.328;19.972;2024-01-06T08:13:00;99467.37;;;8.76;100.00
73063;BME280;61230;46.328;19.972;2024-01-06T08:15:28;99465.41;;;8.78;100.00
73063;BME280;61230;46.328;19.972;2024-01-06T08:17:56;99417.44;;;8.59;100.00
73063;BME280;61230;46.328;19.972;2024-01-06T08:20:24;99425.81;;;8.63;100.00
73063;BME280;61230;46.328;19.972;2024-01-06T08:22:51;99462.09;;;8.93;100.00
73063;BME280;61230;46.328;19.972;2024-01-06T08:25:19;99459.00;;;8.98;100.00
73063;BME280;61230;46.328;19.972;2024-01-06T08:27:47;99457.56;;;9.03;100.00
73063;BME280;61230;46.328;19.972;2024-01-06T08:30:15;99464.81;;;9.09;100.00
73063;BME280;61230;46.328;19.972;2024-01-06T08:32:43;99422.91;;;8.92;100.00
73063;BME280;61230;46.328;19.972;2024-01-06T08:35:11;99463.44;;;9.23;100.00
73063;BME280;61230;46.328;19.972;2024-01-06T08:37:38;99460.84;;;9.31;100.00
73063;BME280;61230;46.328;19.972;2024-01-06T08:40:07;99453.03;;;9.39;100.00
73063;BME280;61230;46.328;19.972;2024-01-06T08:42:35;99451.94;;;9.50;100.00
73063;BME280;61230;46.328;19.972;2024-01-06T08:45:04;99455.56;;;9.57;100.00
73063;BME280;61230;46.328;19.972;2024-01-06T08:47:32;99451.97;;;9.66;100.00
73063;BME280;61230;46.328;19.972;2024-01-06T08:50:00;99454.50;;;9.75;100.00
73063;BME280;61230;46.328;19.972;2024-01-06T08:52:28;99449.25;;;9.83;100.00
73063;BME280;61230;46.328;19.972;2024-01-06T08:54:56;99446.00;;;9.90;100.00
73063;BME280;61230;46.328;19.972;2024-01-06T08:57:23;99446.00;;;9.98;100.00
73063;BME280;61230;46.328;19.972;2024-01-06T08:59:51;99445.37;;;10.04;100.00
73063;BME280;61230;46.328;19.972;2024-01-06T09:02:19;99449.00;;;10.11;100.00
73063;BME280;61230;46.328;19.972;2024-01-06T09:04:46;99410.19;;;9.97;100.00
73063;BME280;61230;46.328;19.972;2024-01-06T09:07:14;99451.84;;;10.25;100.00
73063;BME280;61230;46.328;19.972;2024-01-06T09:09:42;99403.66;;;10.09;100.00
73063;BME280;61230;46.328;19.972;2024-01-06T09:12:10;99448.44;;;10.41;100.00
73063;BME280;61230;46.328;19.972;2024-01-06T09:14:38;99444.97;;;10.49;100.00
73063;BME280;61230;46.328;19.972;2024-01-06T09:17:06;99441.19;;;10.59;100.00
73063;BME280;61230;46.328;19.972;2024-01-06T09:19:33;99440.53;;;10.65;100.00
73063;BME280;61230;46.328;19.972;2024-01-06T09:22:01;99450.41;;;10.71;100.00
73063;BME280;61230;46.328;19.972;2024-01-06T09:24:29;99443.31;;;10.80;100.00
73063;BME280;61230;46.328;19.972;2024-01-06T09:26:57;99410.94;;;10.63;100.00
73063;BME280;61230;46.328;19.972;2024-01-06T09:29:24;99437.87;;;10.98;100.00
73063;BME280;61230;46.328;19.972;2024-01-06T09:31:52;99402.34;;;10.85;100.00
73063;BME280;61230;46.328;19.972;2024-01-06T09:34:20;99399.69;;;10.93;100.00
73063;BME280;61230;46.328;19.972;2024-01-06T09:36:48;99444.37;;;11.26;100.00
73063;BME280;61230;46.328;19.972;2024-01-06T09:39:16;99425.75;;;11.35;100.00
73063;BME280;61230;46.328;19.972;2024-01-06T09:41:44;99415.84;;;11.45;100.00
73063;BME280;61230;46.328;19.972;2024-01-06T09:44:12;99395.97;;;11.35;100.00
73063;BME280;61230;46.328;19.972;2024-01-06T09:46:44;99428.78;;;11.63;100.00
73063;BME280;61230;46.328;19.972;2024-01-06T09:49:11;99422.50;;;11.72;100.00
73063;BME280;61230;46.328;19.972;2024-01-06T09:51:41;99416.88;;;11.83;100.00
73063;BME280;61230;46.328;19.972;2024-01-06T09:54:09;99416.28;;;11.96;100.00
73063;BME280;61230;46.328;19.972;2024-01-06T09:56:39;99410.94;;;12.04;100.00
73063;BME280;61230;46.328;19.972;2024-01-06T09:59:07;99371.53;;;11.88;100.00
73063;BME280;61230;46.328;19.972;2024-01-06T10:01:35;99405.97;;;12.09;100.00
73063;BME280;61230;46.328;19.972;2024-01-06T10:04:04;99364.91;;;11.92;100.00
73063;BME280;61230;46.328;19.972;2024-01-06T10:06:32;99404.47;;;12.15;100.00
73063;BME280;61230;46.328;19.972;2024-01-06T10:09:00;99400.66;;;12.17;100.00
73063;BME280;61230;46.328;19.972;2024-01-06T10:11:28;99404.16;;;12.09;100.00
73063;BME280;61230;46.328;19.972;2024-01-06T10:13:55;99354.88;;;11.87;100.00
73063;BME280;61230;46.328;19.972;2024-01-06T10:16:23;99395.41;;;12.09;100.00
73063;BME280;61230;46.328;19.972;2024-01-06T10:18:52;99392.97;;;12.07;100.00
73063;BME280;61230;46.328;19.972;2024-01-06T10:21:21;99376.87;;;12.02;100.00
73063;BME280;61230;46.328;19.972;2024-01-06T10:23:50;99382.00;;;11.96;100.00
73063;BME280;61230;46.328;19.972;2024-01-06T10:26:19;99335.22;;;11.67;100.00
73063;BME280;61230;46.328;19.972;2024-01-06T10:28:48;99372.84;;;11.84;100.00
73063;BME280;61230;46.328;19.972;2024-01-06T10:31:17;99365.97;;;11.83;100.00
73063;BME280;61230;46.328;19.972;2024-01-06T10:33:45;99378.03;;;11.77;100.00
73063;BME280;61230;46.328;19.972;2024-01-06T10:36:14;99369.22;;;11.85;100.00
73063;BME280;61230;46.328;19.972;2024-01-06T10:38:44;99360.00;;;11.89;100.00
73063;BME280;61230;46.328;19.972;2024-01-06T10:41:14;99323.03;;;11.74;100.00
73063;BME280;61230;46.328;19.972;2024-01-06T10:43:42;99357.88;;;12.07;100.00
73063;BME280;61230;46.328;19.972;2024-01-06T10:46:12;99352.09;;;12.26;100.00
73063;BME280;61230;46.328;19.972;2024-01-06T10:48:42;99345.66;;;12.51;100.00
73063;BME280;61230;46.328;19.972;2024-01-06T10:51:13;99337.56;;;12.67;100.00
73063;BME280;61230;46.328;19.972;2024-01-06T10:53:42;99334.94;;;12.82;100.00
73063;BME280;61230;46.328;19.972;2024-01-06T10:56:10;99347.22;;;12.90;100.00
73063;BME280;61230;46.328;19.972;2024-01-06T10:58:45;99344.69;;;12.96;100.00
73063;BME280;61230;46.328;19.972;2024-01-06T11:01:15;99338.84;;;13.01;100.00
73063;BME280;61230;46.328;19.972;2024-01-06T11:03:48;99341.75;;;13.06;100.00
73063;BME280;61230;46.328;19.972;2024-01-06T11:06:18;99299.69;;;12.90;100.00
73063;BME280;61230;46.328;19.972;2024-01-06T11:09:22;99332.84;;;13.07;100.00
73063;BME280;61230;46.328;19.972;2024-01-06T11:11:53;99333.03;;;13.05;100.00
73063;BME280;61230;46.328;19.972;2024-01-06T11:14:25;99286.03;;;12.86;100.00
73063;BME280;61230;46.328;19.972;2024-01-06T11:16:54;99308.25;;;13.06;100.00
73063;BME280;61230;46.328;19.972;2024-01-06T11:19:41;99306.44;;;13.07;100.00
73063;BME280;61230;46.328;19.972;2024-01-06T11:22:29;99312.38;;;13.09;100.00
73063;BME280;61230;46.328;19.972;2024-01-06T11:25:19;99300.81;;;13.10;100.00
73063;BME280;61230;46.328;19.972;2024-01-06T11:27:49;99291.69;;;13.12;100.00
73063;BME280;61230;46.328;19.972;2024-01-06T11:30:25;99293.41;;;13.20;100.00
73063;BME280;61230;46.328;19.972;2024-01-06T11:32:56;99290.97;;;13.18;99.37
73063;BME280;61230;46.328;19.972;2024-01-06T11:35:27;99289.78;;;13.21;100.00
73063;BME280;61230;46.328;19.972;2024-01-06T11:37:57;99277.56;;;13.20;100.00
73063;BME280;61230;46.328;19.972;2024-01-06T11:40:32;99273.09;;;13.20;99.89
73063;BME280;61230;46.328;19.972;2024-01-06T11:43:11;99276.47;;;13.14;98.71
73063;BME280;61230;46.328;19.972;2024-01-06T11:45:44;99260.56;;;13.08;99.60
73063;BME280;61230;46.328;19.972;2024-01-06T11:48:12;99263.91;;;13.02;99.41
73063;BME280;61230;46.328;19.972;2024-01-06T11:50:41;99264.91;;;13.01;96.72
73063;BME280;61230;46.328;19.972;2024-01-06T11:53:09;99256.91;;;12.94;96.04
73063;BME280;61230;46.328;19.972;2024-01-06T11:55:39;99232.53;;;12.78;96.23
73063;BME280;61230;46.328;19.972;2024-01-06T11:58:07;99265.91;;;13.00;97.03
73063;BME280;61230;46.328;19.972;2024-01-06T12:00:35;99267.28;;;12.96;96.77
73063;BME280;61230;46.328;19.972;2024-01-06T12:03:08;99259.94;;;12.91;97.65
73063;BME280;61230;46.328;19.972;2024-01-06T12:05:36;99274.66;;;12.86;99.52
73063;BME280;61230;46.328;19.972;2024-01-06T12:08:04;99231.28;;;12.59;100.00
73063;BME280;61230;46.328;19.972;2024-01-06T12:10:36;99261.37;;;12.79;100.00
73063;BME280;61230;46.328;19.972;2024-01-06T12:13:06;99258.84;;;12.71;100.00
73063;BME280;61230;46.328;19.972;2024-01-06T12:15:38;99253.28;;;12.66;100.00
73063;BME280;61230;46.328;19.972;2024-01-06T12:18:07;99231.81;;;12.40;100.00
73063;BME280;61230;46.328;19.972;2024-01-06T12:20:35;99250.84;;;12.64;100.00
73063;BME280;61230;46.328;19.972;2024-01-06T12:23:03;99261.37;;;12.64;100.00
73063;BME280;61230;46.328;19.972;2024-01-06T12:25:34;99258.91;;;12.63;100.00
73063;BME280;61230;46.328;19.972;2024-01-06T12:28:07;99250.94;;;12.56;100.00
73063;BME280;61230;46.328;19.972;2024-01-06T12:30:35;99251.81;;;12.49;99.13
73063;BME280;61230;46.328;19.972;2024-01-06T12:33:04;99253.66;;;12.48;99.16
73063;BME280;61230;46.328;19.972;2024-01-06T12:35:32;99255.56;;;12.40;98.57
73063;BME280;61230;46.328;19.972;2024-01-06T12:38:02;99250.72;;;12.29;98.38
73063;BME280;61230;46.328;19.972;2024-01-06T12:40:29;99251.81;;;12.20;98.27
73063;BME280;61230;46.328;19.972;2024-01-06T12:42:57;99245.13;;;12.09;99.37
73063;BME280;61230;46.328;19.972;2024-01-06T12:45:25;99257.75;;;11.99;100.00
73063;BME280;61230;46.328;19.972;2024-01-06T12:47:55;99255.69;;;11.86;100.00
73063;BME280;61230;46.328;19.972;2024-01-06T12:50:23;99254.50;;;11.74;100.00
73063;BME280;61230;46.328;19.972;2024-01-06T12:52:50;99260.50;;;11.60;100.00
73063;BME280;61230;46.328;19.972;2024-01-06T12:55:18;99256.63;;;11.48;100.00